createdAt,value
2022-10-03T00:01:25.240Z,3.45
2022-10-03T00:04:08.076Z,2.60
2022-10-03T00:06:51.968Z,3.40
2022-10-03T00:09:44.924Z,3.55
2022-10-03T00:12:21.510Z,3.13
2022-10-03T00:15:00.707Z,3.20
2022-10-03T00:17:39.110Z,3.50
2022-10-03T00:20:15.463Z,3.17
2022-10-03T00:22:50.063Z,3.83
2022-10-03T00:25:35.009Z,3.22
2022-10-03T00:28:19.506Z,3.05
2022-10-03T00:31:03.524Z,3.28
2022-10-03T00:33:40.007Z,2.75
2022-10-03T00:36:14.575Z,4.07
2022-10-03T00:39:23.992Z,2.50
2022-10-03T00:42:17.859Z,3.00
2022-10-03T00:45:13.409Z,2.72
2022-10-03T00:48:06.245Z,3.20
2022-10-03T00:51:02.106Z,2.72
2022-10-03T00:53:43.632Z,3.03
2022-10-03T00:56:36.409Z,2.85
2022-10-03T00:59:26.331Z,2.85
2022-10-03T01:01:55.076Z,2.60
2022-10-03T01:04:45.215Z,3.30
2022-10-03T01:07:30.671Z,3.08
2022-10-03T01:10:14.591Z,2.83
2022-10-03T01:12:58.507Z,3.22
2022-10-03T01:15:39.974Z,2.90
2022-10-03T01:18:20.240Z,3.35
2022-10-03T01:20:59.448Z,3.08
2022-10-03T01:23:57.100Z,2.90
2022-10-03T01:26:48.716Z,2.95
2022-10-03T01:29:41.480Z,2.60
2022-10-03T01:32:15.893Z,2.80
2022-10-03T01:34:50.167Z,2.83
2022-10-03T01:37:24.961Z,2.72
2022-10-03T01:40:01.008Z,2.58
2022-10-03T01:42:41.930Z,2.97
2022-10-03T01:45:29.259Z,2.70
2022-10-03T01:50:36.614Z,2.80
2022-10-03T01:53:13.525Z,3.22
2022-10-03T01:55:55.658Z,2.60
2022-10-03T01:58:28.839Z,2.53
2022-10-03T02:01:07.527Z,2.72
2022-10-03T02:03:40.232Z,3.60
2022-10-03T02:06:20.410Z,3.50
2022-10-03T02:08:56.426Z,2.70
2022-10-03T02:11:32.679Z,3.17
2022-10-03T02:14:14.108Z,2.70
2022-10-03T02:16:45.935Z,2.97
2022-10-03T02:19:21.326Z,2.88
2022-10-03T02:21:51.418Z,2.60
2022-10-03T02:24:30.343Z,2.72
2022-10-03T02:27:21.264Z,2.60
2022-10-03T02:30:09.217Z,3.33
2022-10-03T02:33:03.923Z,2.45
2022-10-03T02:36:18.648Z,2.55
2022-10-03T02:39:04.868Z,2.97
2022-10-03T02:41:57.787Z,3.28
2022-10-03T02:45:20.231Z,2.42
2022-10-03T02:48:31.619Z,2.55
2022-10-03T02:51:29.016Z,2.42
2022-10-03T02:54:41.457Z,4.18
2022-10-03T02:57:29.024Z,2.55
2022-10-03T03:00:08.494Z,4.32
2022-10-03T03:03:07.988Z,4.05
2022-10-03T03:06:20.300Z,3.33
2022-10-03T03:09:13.505Z,3.72
2022-10-03T03:11:59.311Z,2.85
2022-10-03T03:15:02.579Z,2.65
2022-10-03T03:17:36.131Z,2.95
2022-10-03T03:20:32.496Z,2.88
2022-10-03T03:23:19.661Z,2.67
2022-10-03T03:26:05.295Z,2.28
2022-10-03T03:28:47.283Z,2.80
2022-10-03T03:31:18.840Z,2.97
2022-10-03T03:34:00.757Z,2.85
2022-10-03T03:36:36.117Z,2.90
2022-10-03T03:39:19.067Z,2.88
2022-10-03T03:42:12.361Z,2.90
2022-10-03T03:45:11.936Z,2.60
2022-10-03T03:47:56.863Z,2.83
2022-10-03T03:50:35.601Z,3.85
2022-10-03T03:53:24.311Z,2.92
2022-10-03T03:56:06.989Z,3.15
2022-10-03T03:58:42.051Z,2.65
2022-10-03T04:01:38.364Z,2.70
2022-10-03T04:04:21.120Z,2.80
2022-10-03T04:06:58.432Z,2.55
2022-10-03T04:09:44.502Z,2.65
2022-10-03T04:12:25.783Z,2.75
2022-10-03T04:15:13.722Z,2.35
2022-10-03T04:18:17.585Z,2.13
2022-10-03T04:21:01.761Z,2.88
2022-10-03T04:23:50.070Z,3.15
2022-10-03T04:26:31.210Z,2.67
2022-10-03T04:29:24.649Z,3.05
2022-10-03T04:32:08.013Z,2.65
2022-10-03T04:34:51.085Z,2.17
2022-10-03T04:37:35.403Z,2.50
2022-10-03T04:40:24.687Z,2.65
2022-10-03T04:43:04.371Z,3.13
2022-10-03T04:45:56.192Z,2.10
2022-10-03T04:48:38.864Z,3.47
2022-10-03T04:51:15.386Z,3.10
2022-10-03T04:53:51.582Z,2.70
2022-10-03T04:56:34.955Z,3.35
2022-10-03T04:59:11.011Z,2.50
2022-10-03T05:01:48.400Z,2.38
2022-10-03T05:04:27.578Z,2.85
2022-10-03T05:07:07.339Z,2.47
2022-10-03T05:09:43.277Z,2.50
2022-10-03T05:12:22.315Z,3.35
2022-10-03T05:15:09.194Z,2.70
2022-10-03T05:17:47.298Z,2.58
2022-10-03T05:20:38.980Z,2.67
2022-10-03T05:23:29.628Z,2.63
2022-10-03T05:26:39.891Z,2.45
2022-10-03T05:29:03.455Z,2.38
2022-10-03T05:31:45.953Z,2.72
2022-10-03T05:34:23.319Z,2.38
2022-10-03T05:37:08.906Z,4.45
2022-10-03T05:39:44.083Z,2.63
2022-10-03T05:42:35.507Z,2.60
2022-10-03T05:45:07.827Z,2.35
2022-10-03T05:47:49.955Z,3.42
2022-10-03T05:50:42.660Z,3.67
2022-10-03T05:53:27.730Z,2.95
2022-10-03T05:56:06.754Z,2.67
2022-10-03T05:59:33.684Z,3.63
2022-10-03T06:02:32.789Z,2.95
2022-10-03T06:05:23.740Z,2.80
2022-10-03T06:08:20.403Z,3.60
2022-10-03T06:10:55.659Z,2.67
2022-10-03T06:13:39.659Z,2.22
2022-10-03T06:16:23.221Z,2.55
2022-10-03T06:19:15.204Z,2.83
2022-10-03T06:22:34.210Z,3.00
2022-10-03T06:25:28.745Z,2.70
2022-10-03T06:28:37.114Z,2.65
2022-10-03T06:34:08.387Z,2.70
2022-10-03T06:36:55.272Z,3.55
2022-10-03T06:40:25.384Z,3.00
2022-10-03T06:43:20.163Z,2.80
2022-10-03T06:46:19.382Z,2.75
2022-10-03T06:49:22.870Z,3.42
2022-10-03T06:52:41.247Z,2.97
2022-10-03T06:55:35.063Z,3.03
2022-10-03T06:58:25.617Z,3.53
2022-10-03T07:01:00.649Z,3.00
2022-10-03T07:03:48.595Z,2.92
2022-10-03T07:06:40.511Z,3.05
2022-10-03T07:09:53.750Z,2.95
2022-10-03T07:13:00.853Z,2.53
2022-10-03T07:16:08.688Z,3.25
2022-10-03T07:19:02.677Z,3.00
2022-10-03T07:22:18.703Z,3.40
2022-10-03T07:25:18.475Z,2.90
2022-10-03T07:28:16.905Z,3.17
2022-10-03T07:31:00.771Z,2.95
2022-10-03T07:33:47.479Z,3.15
2022-10-03T07:37:01.689Z,3.00
2022-10-03T07:39:57.238Z,2.95
2022-10-03T07:42:52.736Z,3.38
2022-10-03T07:45:34.930Z,3.50
2022-10-03T07:48:17.541Z,3.08
2022-10-03T07:51:13.305Z,3.20
2022-10-03T07:54:07.995Z,2.70
2022-10-03T07:57:07.699Z,3.33
2022-10-03T08:00:22.912Z,3.67
2022-10-03T08:03:24.070Z,3.28
2022-10-03T08:06:26.318Z,3.53
2022-10-03T08:09:37.376Z,3.80
2022-10-03T08:12:43.169Z,3.15
2022-10-03T08:15:20.588Z,4.03
2022-10-03T08:18:34.402Z,3.45
2022-10-03T08:21:03.211Z,3.85
2022-10-03T08:23:55.418Z,2.97
2022-10-03T08:26:35.221Z,3.55
2022-10-03T08:29:41.552Z,2.90
2022-10-03T08:32:40.167Z,4.07
2022-10-03T08:35:31.455Z,2.78
2022-10-03T08:38:33.685Z,3.25
2022-10-03T08:41:38.903Z,3.20
2022-10-03T08:44:37.573Z,3.47
2022-10-03T08:47:31.896Z,2.80
2022-10-03T08:50:32.254Z,2.22
2022-10-03T08:53:28.300Z,2.58
2022-10-03T08:56:05.650Z,3.70
2022-10-03T08:59:13.476Z,4.10
2022-10-03T09:02:04.359Z,4.22
2022-10-03T09:05:14.232Z,2.90
2022-10-03T09:08:19.997Z,3.58
2022-10-03T09:11:14.910Z,3.13
2022-10-03T09:14:29.714Z,4.03
2022-10-03T09:17:15.693Z,3.40
2022-10-03T09:20:06.088Z,3.15
2022-10-03T09:22:54.431Z,3.55
2022-10-03T09:25:40.569Z,3.40
2022-10-03T09:28:42.774Z,4.22
2022-10-03T09:31:26.300Z,2.80
2022-10-03T09:34:32.380Z,2.70
2022-10-03T09:37:38.426Z,2.83
2022-10-03T09:40:34.549Z,3.30
2022-10-03T09:43:26.278Z,2.30
2022-10-03T09:46:33.567Z,3.47
2022-10-03T09:49:37.966Z,3.03
2022-10-03T09:52:27.990Z,2.50
2022-10-03T09:55:34.239Z,3.38
2022-10-03T09:58:26.046Z,2.58
2022-10-03T10:01:15.014Z,2.40
2022-10-03T10:04:15.821Z,2.58
2022-10-03T10:07:18.715Z,2.20
2022-10-03T10:10:20.533Z,2.30
2022-10-03T10:13:33.198Z,3.22
2022-10-03T10:16:31.095Z,2.42
2022-10-03T10:19:42.979Z,2.53
2022-10-03T10:22:47.918Z,2.38
2022-10-03T10:25:50.859Z,2.90
2022-10-03T10:28:44.319Z,2.35
2022-10-03T10:31:52.293Z,1.98
2022-10-03T10:35:08.452Z,2.58
2022-10-03T10:38:22.855Z,2.53
2022-10-03T10:41:19.723Z,2.08
2022-10-03T10:44:27.204Z,2.53
2022-10-03T10:47:34.064Z,2.33
2022-10-03T10:50:35.928Z,2.15
2022-10-03T10:53:41.177Z,3.45
2022-10-03T10:57:01.344Z,2.28
2022-10-03T11:00:07.889Z,2.47
2022-10-03T11:03:11.691Z,2.60
2022-10-03T11:06:27.480Z,2.72
2022-10-03T11:09:39.401Z,2.00
2022-10-03T11:12:40.530Z,2.28
2022-10-03T11:15:47.793Z,2.53
2022-10-03T11:19:20.596Z,1.80
2022-10-03T11:22:36.667Z,3.20
2022-10-03T11:25:55.495Z,2.45
2022-10-03T11:31:50.865Z,2.38
2022-10-03T11:35:03.121Z,2.20
2022-10-03T11:37:44.196Z,2.38
2022-10-03T11:40:33.415Z,1.80
2022-10-03T11:43:36.627Z,2.33
2022-10-03T11:46:22.523Z,1.60
2022-10-03T11:48:57.603Z,1.55
2022-10-03T11:51:43.630Z,1.50
2022-10-03T11:54:31.531Z,1.35
2022-10-03T11:57:09.379Z,1.80
2022-10-03T12:00:00.168Z,1.55
2022-10-03T12:02:56.940Z,1.90
2022-10-03T12:05:35.670Z,1.93
2022-10-03T12:08:37.055Z,1.88
2022-10-03T12:11:16.086Z,1.60
2022-10-03T12:14:05.241Z,1.80
2022-10-03T12:16:53.359Z,2.13
2022-10-03T12:19:31.001Z,1.65
2022-10-03T12:22:06.345Z,1.52
2022-10-03T12:24:37.876Z,1.63
2022-10-03T12:27:19.437Z,2.50
2022-10-03T12:29:59.005Z,1.70
2022-10-03T12:32:49.889Z,1.67
2022-10-03T12:35:34.747Z,1.80
2022-10-03T12:38:22.693Z,1.73
2022-10-03T12:41:01.887Z,1.85
2022-10-03T12:43:46.802Z,2.13
2022-10-03T12:46:20.015Z,1.98
2022-10-03T12:48:56.090Z,1.50
2022-10-03T12:51:40.635Z,1.25
2022-10-03T12:54:23.563Z,1.63
2022-10-03T12:57:14.132Z,1.98
2022-10-03T12:59:48.679Z,1.70
2022-10-03T13:02:29.916Z,2.10
2022-10-03T13:05:24.705Z,1.70
2022-10-03T13:07:56.809Z,1.58
2022-10-03T13:10:35.309Z,1.90
2022-10-03T13:13:19.221Z,1.65
2022-10-03T13:16:19.799Z,1.73
2022-10-03T13:18:55.083Z,1.40
2022-10-03T13:21:45.389Z,1.92
2022-10-03T13:24:24.650Z,2.20
2022-10-03T13:26:59.286Z,1.70
2022-10-03T13:29:31.839Z,1.40
2022-10-03T13:32:25.264Z,1.85
2022-10-03T13:35:54.963Z,1.60
2022-10-03T13:38:47.069Z,2.35
2022-10-03T13:41:30.026Z,1.77
2022-10-03T13:44:02.094Z,1.88
2022-10-03T13:46:44.544Z,1.52
2022-10-03T13:49:20.288Z,2.13
2022-10-03T13:51:57.098Z,1.70
2022-10-03T13:54:47.823Z,1.80
2022-10-03T13:57:18.427Z,1.25
2022-10-03T13:59:57.918Z,1.42
2022-10-03T14:02:44.037Z,2.47
2022-10-03T14:05:34.319Z,1.95
2022-10-03T14:08:14.534Z,1.70
2022-10-03T14:11:15.146Z,1.30
2022-10-03T14:13:59.744Z,1.60
2022-10-03T14:16:31.698Z,1.67
2022-10-03T14:19:10.344Z,1.85
2022-10-03T14:21:56.660Z,1.70
2022-10-03T14:24:37.138Z,1.60
2022-10-03T14:27:14.144Z,1.20
2022-10-03T14:29:56.856Z,2.25
2022-10-03T14:32:46.872Z,2.10
2022-10-03T14:35:25.489Z,1.50
2022-10-03T14:38:03.296Z,1.27
2022-10-03T14:40:39.934Z,2.00
2022-10-03T14:45:47.704Z,1.20
2022-10-03T14:48:19.824Z,2.00
2022-10-03T14:50:52.535Z,1.40
2022-10-03T14:53:25.647Z,1.30
2022-10-03T14:56:01.842Z,2.45
2022-10-03T14:58:33.477Z,3.78
2022-10-03T15:01:13.383Z,3.65
2022-10-03T15:03:45.343Z,5.05
2022-10-03T15:06:33.810Z,3.75
2022-10-03T15:09:07.196Z,2.88
2022-10-03T15:11:38.560Z,2.35
2022-10-03T15:14:10.064Z,1.60
2022-10-03T15:16:45.818Z,1.70
2022-10-03T15:19:18.977Z,2.10
2022-10-03T15:21:51.610Z,1.75
2022-10-03T15:24:25.463Z,2.53
2022-10-03T15:26:58.968Z,2.60
2022-10-03T15:29:27.278Z,2.00
2022-10-03T15:31:57.622Z,2.20
2022-10-03T15:34:33.023Z,2.10
2022-10-03T15:37:07.174Z,1.40
2022-10-03T15:39:40.539Z,1.50
2022-10-03T15:42:22.980Z,2.05
2022-10-03T15:44:54.143Z,2.17
2022-10-03T15:47:24.353Z,1.85
2022-10-03T15:49:56.847Z,2.20
2022-10-03T15:52:32.430Z,1.30
2022-10-03T15:55:12.619Z,1.58
2022-10-03T15:57:46.579Z,2.35
2022-10-03T16:00:22.543Z,1.77
2022-10-03T16:02:57.425Z,2.20
2022-10-03T16:05:25.832Z,1.40
2022-10-03T16:08:01.477Z,1.80
2022-10-03T16:10:37.486Z,1.48
2022-10-03T16:13:21.054Z,1.40
2022-10-03T16:16:07.390Z,1.40
2022-10-03T16:18:51.046Z,2.13
2022-10-03T16:21:31.202Z,1.65
2022-10-03T16:24:02.397Z,1.55
2022-10-03T16:26:36.721Z,2.40
2022-10-03T16:29:13.275Z,1.88
2022-10-03T16:31:48.498Z,1.77
2022-10-03T16:34:19.607Z,2.22
2022-10-03T16:36:50.385Z,2.10
2022-10-03T16:39:25.127Z,1.90
2022-10-03T16:41:55.827Z,1.60
2022-10-03T16:44:31.124Z,1.33
2022-10-03T16:47:04.230Z,2.15
2022-10-03T16:49:57.325Z,1.98
2022-10-03T16:52:31.812Z,2.67
2022-10-03T16:55:03.950Z,3.20
2022-10-03T16:57:41.976Z,3.38
2022-10-03T17:00:16.899Z,2.97
2022-10-03T17:02:45.197Z,3.17
2022-10-03T17:05:15.712Z,3.35
2022-10-03T17:07:46.082Z,3.20
2022-10-03T17:10:34.702Z,3.55
2022-10-03T17:13:12.661Z,3.47
2022-10-03T17:15:49.948Z,3.45
2022-10-03T17:18:26.513Z,3.97
2022-10-03T17:20:57.518Z,3.20
2022-10-03T17:23:33.609Z,3.72
2022-10-03T17:26:06.749Z,3.50
2022-10-03T17:28:41.401Z,3.80
2022-10-03T17:31:28.652Z,3.40
2022-10-03T17:34:03.445Z,2.83
2022-10-03T17:36:56.326Z,3.22
2022-10-03T17:39:39.937Z,3.60
2022-10-03T17:42:22.873Z,3.42
2022-10-03T17:45:00.427Z,3.00
2022-10-03T17:47:38.504Z,3.17
2022-10-03T17:50:12.181Z,3.40
2022-10-03T17:52:42.809Z,2.88
2022-10-03T17:55:18.692Z,3.03
2022-10-03T17:57:50.336Z,3.05
2022-10-03T18:00:22.481Z,3.72
2022-10-03T18:02:59.400Z,3.08
2022-10-03T18:05:31.918Z,3.28
2022-10-03T18:08:05.913Z,2.70
2022-10-03T18:10:38.392Z,3.00
2022-10-03T18:13:16.177Z,2.65
2022-10-03T18:16:19.606Z,3.80
2022-10-03T18:19:21.702Z,3.47
2022-10-03T18:22:07.586Z,2.85
2022-10-03T18:24:49.168Z,3.13
2022-10-03T18:27:42.439Z,2.92
2022-10-03T18:30:18.216Z,2.78
2022-10-03T18:32:46.794Z,2.63
2022-10-03T18:35:21.153Z,3.03
2022-10-03T18:38:12.369Z,2.75
2022-10-03T18:40:47.521Z,2.92
2022-10-03T18:43:32.468Z,2.35
2022-10-03T18:46:09.636Z,2.35
2022-10-03T18:48:43.857Z,3.38
2022-10-03T18:51:18.239Z,3.63
2022-10-03T18:53:49.799Z,2.55
2022-10-03T18:56:25.091Z,2.47
2022-10-03T18:59:08.952Z,3.08
2022-10-03T19:01:46.169Z,2.67
2022-10-03T19:04:18.581Z,3.78
2022-10-03T19:06:52.379Z,4.07
2022-10-03T19:09:27.169Z,2.75
2022-10-03T19:12:02.966Z,3.17
2022-10-03T19:14:36.401Z,3.57
2022-10-03T19:17:21.316Z,2.65
2022-10-03T19:19:58.785Z,3.20
2022-10-03T19:22:31.922Z,3.60
2022-10-03T19:25:02.689Z,3.05
2022-10-03T19:27:44.383Z,3.30
2022-10-03T19:30:18.537Z,2.95
2022-10-03T19:32:51.343Z,2.85
2022-10-03T19:35:21.934Z,3.22
2022-10-03T19:37:53.539Z,3.10
2022-10-03T19:40:43.459Z,3.47
2022-10-03T19:43:32.811Z,3.92
2022-10-03T19:46:12.724Z,3.38
2022-10-03T19:48:52.083Z,3.47
2022-10-03T19:51:25.681Z,3.00
2022-10-03T19:53:57.770Z,3.28
2022-10-03T19:56:27.653Z,3.53
2022-10-03T19:59:04.562Z,2.78
2022-10-03T20:01:43.394Z,3.25
2022-10-03T20:04:12.309Z,3.60
2022-10-03T20:06:44.128Z,3.65
2022-10-03T20:09:23.557Z,3.25
2022-10-03T20:11:56.422Z,3.10
2022-10-03T20:14:27.708Z,3.75
2022-10-03T20:17:01.017Z,3.70
2022-10-03T20:19:33.683Z,3.88
2022-10-03T20:22:06.947Z,3.75
2022-10-03T20:24:40.209Z,3.75
2022-10-03T20:27:22.127Z,3.70
2022-10-03T20:29:59.927Z,3.13
2022-10-03T20:32:28.939Z,3.75
2022-10-03T20:34:59.831Z,3.85
2022-10-03T20:37:49.172Z,3.90
2022-10-03T20:40:30.088Z,3.55
2022-10-03T20:43:14.659Z,3.95
2022-10-03T20:45:44.943Z,4.28
2022-10-03T20:48:17.996Z,3.95
2022-10-03T20:50:47.545Z,3.35
2022-10-03T20:53:20.641Z,4.13
2022-10-03T20:55:52.350Z,3.53
2022-10-03T20:58:29.924Z,3.85
2022-10-03T21:01:02.476Z,3.75
2022-10-03T21:03:39.264Z,3.80
2022-10-03T21:06:19.136Z,3.78
2022-10-03T21:08:48.689Z,3.55
2022-10-03T21:11:22.474Z,4.40
2022-10-03T21:13:55.763Z,3.85
2022-10-03T21:16:28.820Z,4.20
2022-10-03T21:19:00.966Z,4.03
2022-10-03T21:21:33.789Z,3.92
2022-10-03T21:24:05.915Z,4.68
2022-10-03T21:26:42.357Z,3.30
2022-10-03T21:29:18.826Z,4.30
2022-10-03T21:31:57.001Z,4.28
2022-10-03T21:34:31.440Z,3.90
2022-10-03T21:37:12.491Z,4.07
2022-10-03T21:39:51.283Z,4.13
2022-10-03T21:42:26.669Z,4.70
2022-10-03T21:45:09.316Z,3.58
2022-10-03T21:47:45.420Z,3.72
2022-10-03T21:50:21.205Z,3.55
2022-10-03T21:53:00.386Z,3.43
2022-10-03T21:55:52.761Z,4.70
2022-10-03T21:58:43.268Z,3.90
2022-10-03T22:01:18.312Z,3.35
2022-10-03T22:03:52.612Z,3.30
2022-10-03T22:06:24.913Z,3.20
2022-10-03T22:08:54.549Z,4.50
2022-10-03T22:11:34.689Z,4.13
2022-10-03T22:14:14.273Z,4.10
2022-10-03T22:16:50.585Z,3.92
2022-10-03T22:19:22.432Z,4.30
2022-10-03T22:22:07.544Z,3.72
2022-10-03T22:24:46.831Z,3.35
2022-10-03T22:27:21.146Z,3.95
2022-10-03T22:29:58.704Z,4.40
2022-10-03T22:32:31.535Z,3.78
2022-10-03T22:35:07.913Z,4.72
2022-10-03T22:37:35.713Z,4.25
2022-10-03T22:40:04.828Z,4.57
2022-10-03T22:42:40.224Z,3.70
2022-10-03T22:45:12.049Z,4.38
2022-10-03T22:47:41.323Z,3.92
2022-10-03T22:50:13.444Z,4.03
2022-10-03T22:52:44.655Z,3.90
2022-10-03T22:55:16.128Z,4.32
2022-10-03T22:57:45.925Z,4.35
2022-10-03T23:00:18.429Z,4.45
2022-10-03T23:02:50.618Z,4.40
2022-10-03T23:05:27.727Z,4.07
2022-10-03T23:08:08.139Z,4.07
2022-10-03T23:10:51.835Z,4.53
2022-10-03T23:13:35.999Z,3.50
2022-10-03T23:16:16.357Z,4.38
2022-10-03T23:18:54.306Z,4.97
2022-10-03T23:21:22.198Z,4.55
2022-10-03T23:24:03.335Z,4.05
2022-10-03T23:26:45.254Z,4.72
2022-10-03T23:29:14.335Z,4.10
2022-10-03T23:31:55.376Z,4.47
2022-10-03T23:34:46.382Z,4.00
2022-10-03T23:37:42.444Z,4.07
2022-10-03T23:40:30.720Z,4.72
2022-10-03T23:43:06.548Z,3.92
2022-10-03T23:45:36.499Z,4.93
2022-10-03T23:48:10.163Z,4.43
2022-10-03T23:50:43.008Z,4.10
2022-10-03T23:53:21.451Z,3.78
2022-10-03T23:55:49.458Z,3.58
2022-10-03T23:58:27.396Z,4.25
